Weer

Current Metar

EHAM: EHAM 180855Z 24017KT 9999 FEW024 SCT030 07/03 Q1018 NOSIG
EHRD: EHRD 180855Z AUTO 23013G23KT 200V270 9999 FEW019 SCT023 BKN030 07/04 Q1019 NOSIG
EHGG: EHGG 180855Z AUTO 24017KT 210V270 9999 FEW029 07/02 Q1016 NOSIG
EHEH: EHEH 180911Z AUTO 23018KT 210V280 9999 SCT015 BKN020 07/03 Q1021 WHT 22015G25KT 9999 SCT015 BKN020
EHBK: EHBK 180855Z AUTO 23016KT 9999 BKN016 OVC020 06/03 Q1023 NOSIG

Search METAR


Wind Charts

+ 0600h
FL100 FL180 FL240 FL300 FL340

+ 1200h
FL100 FL180 FL240 FL300 FL340

+ 1800h
FL100 FL180 FL240 FL300 FL340

+ 2400h
FL100 FL180 FL240 FL300 FL340

Europe & Africa charts only, updated daily.

 

Weather Services

MET Office